Time;durP1;ratioP1;P1;durP2;ratioP2;P2;SDS_P1;SDS_P2;PMS_P1;PMS_P2;Temp;Humidity;BMP_temperature;BMP_pressure;BME280_temperature;BME280_humidity;BME280_pressure;Samples;Min_cycle;Max_cycle;Signal;HPM_P1;HPM_P2
2022/05/06 00:00:46;;;;;;;;;;;16.90;64.90;;;;;;5113796;27;19951;-80
2022/05/06 00:03:15;;;;;;;;;;;16.90;64.90;;;;;;5117903;27;20436;-78
2022/05/06 00:05:54;;;;;;;;;;;16.90;64.90;;;;;;5095465;27;20196;-78
2022/05/06 00:08:21;;;;;;;;;;;16.80;64.80;;;;;;5093078;27;19927;-79
2022/05/06 00:10:53;;;;;;;;;;;16.90;64.90;;;;;;5118014;27;20014;-78
2022/05/06 00:13:21;;;;;;;;;;;16.90;64.90;;;;;;5106932;27;20267;-77
2022/05/06 00:15:48;;;;;;;;;;;16.80;65.60;;;;;;5111288;27;19926;-79
2022/05/06 00:18:15;;;;;;;;;;;16.80;64.80;;;;;;5108194;27;19920;-79
2022/05/06 00:20:42;;;;;;;;;;;16.80;64.80;;;;;;5112828;27;19923;-77
2022/05/06 00:23:11;;;;;;;;;;;16.90;64.90;;;;;;5115526;27;20018;-79
2022/05/06 00:25:38;;;;;;;;;;;16.80;64.80;;;;;;5109108;27;19926;-78
2022/05/06 00:28:10;;;;;;;;;;;17.50;65.50;;;;;;5107837;27;19923;-79
2022/05/06 00:30:42;;;;;;;;;;;16.80;64.80;;;;;;5110764;27;19972;-77
2022/05/06 00:33:09;;;;;;;;;;;16.80;64.80;;;;;;5114589;27;20518;-80
2022/05/06 00:35:45;;;;;;;;;;;16.80;64.80;;;;;;5115580;27;19927;-77
2022/05/06 00:38:12;;;;;;;;;;;16.80;64.80;;;;;;5111113;27;19927;-77
2022/05/06 00:40:54;;;;;;;;;;;16.80;64.80;;;;;;5092676;27;20381;-78
2022/05/06 00:43:21;;;;;;;;;;;17.20;65.20;;;;;;5107905;27;19919;-77
2022/05/06 00:45:53;;;;;;;;;;;16.80;64.80;;;;;;5089798;27;19926;-76
2022/05/06 00:48:22;;;;;;;;;;;16.80;64.80;;;;;;5106543;27;19919;-78
2022/05/06 00:50:49;;;;;;;;;;;16.80;64.80;;;;;;5107563;27;19926;-78
2022/05/06 00:53:26;;;;;;;;;;;17.60;65.60;;;;;;5109209;27;20056;-78
2022/05/06 00:55:56;;;;;;;;;;;16.90;65.70;;;;;;5116519;27;20273;-78
2022/05/06 00:58:24;;;;;;;;;;;16.80;64.80;;;;;;5110826;27;19926;-79
2022/05/06 01:01:04;;;;;;;;;;;16.80;64.70;;;;;;5124828;27;19920;-78
2022/05/06 01:03:43;;;;;;;;;;;16.80;64.70;;;;;;5106406;28;19966;-78
2022/05/06 01:06:19;;;;;;;;;;;16.80;64.70;;;;;;5119733;27;19927;-76
2022/05/06 01:08:51;;;;;;;;;;;16.80;64.70;;;;;;5117250;27;19923;-77
2022/05/06 01:11:18;;;;;;;;;;;16.80;64.80;;;;;;5109551;27;19977;-76
2022/05/06 01:13:45;;;;;;;;;;;16.80;64.80;;;;;;5111657;27;19970;-77
2022/05/06 01:16:19;;;;;;;;;;;16.80;64.70;;;;;;5112940;27;19919;-79
2022/05/06 01:18:52;;;;;;;;;;;16.80;64.80;;;;;;5105805;27;19927;-77
2022/05/06 01:21:27;;;;;;;;;;;17.80;65.80;;;;;;5116574;27;19920;-76
2022/05/06 01:23:55;;;;;;;;;;;16.80;64.70;;;;;;5112492;27;19926;-76
2022/05/06 01:26:43;;;;;;;;;;;16.80;64.80;;;;;;5097916;27;20007;-79
2022/05/06 01:29:14;;;;;;;;;;;16.80;64.70;;;;;;5106134;27;20014;-79
2022/05/06 01:31:42;;;;;;;;;;;16.80;64.70;;;;;;5110997;27;19969;-78
2022/05/06 01:34:10;;;;;;;;;;;16.80;64.70;;;;;;5118307;27;19919;-76
2022/05/06 01:36:39;;;;;;;;;;;16.80;64.70;;;;;;5126498;27;19997;-80
2022/05/06 01:39:10;;;;;;;;;;;16.80;64.80;;;;;;5114886;27;19964;-80
2022/05/06 01:41:58;;;;;;;;;;;16.80;64.80;;;;;;5113606;27;20401;-79
2022/05/06 01:44:27;;;;;;;;;;;16.80;64.80;;;;;;5112659;27;19927;-77
2022/05/06 01:46:54;;;;;;;;;;;16.80;64.80;;;;;;5119076;27;19919;-80
2022/05/06 01:49:22;;;;;;;;;;;16.80;64.80;;;;;;5115027;27;20313;-79
2022/05/06 01:52:09;;;;;;;;;;;16.80;64.80;;;;;;5121751;27;20468;-77
2022/05/06 01:54:37;;;;;;;;;;;16.80;64.80;;;;;;5116845;27;20050;-78
2022/05/06 01:57:19;;;;;;;;;;;16.80;64.80;;;;;;5114970;27;20427;-78
2022/05/06 01:59:51;;;;;;;;;;;16.70;64.70;;;;;;5116699;27;19926;-79
2022/05/06 02:02:25;;;;;;;;;;;17.80;65.90;;;;;;5110010;27;19965;-79
2022/05/06 02:07:38;;;;;;;;;;;16.70;64.80;;;;;;5117123;27;19919;-78
2022/05/06 02:10:07;;;;;;;;;;;16.70;64.70;;;;;;5110092;27;20010;-76
2022/05/06 02:12:38;;;;;;;;;;;16.70;64.70;;;;;;5117925;27;19919;-80
2022/05/06 02:15:05;;;;;;;;;;;16.70;64.70;;;;;;5111632;27;19927;-78
2022/05/06 02:17:50;;;;;;;;;;;16.70;64.70;;;;;;5119672;27;20001;-78
2022/05/06 02:20:17;;;;;;;;;;;16.70;64.70;;;;;;5110124;27;19998;-79
2022/05/06 02:22:51;;;;;;;;;;;16.70;64.80;;;;;;5095150;27;20022;-79
2022/05/06 02:25:19;;;;;;;;;;;16.70;64.80;;;;;;5108248;27;20364;-78
2022/05/06 02:27:45;;;;;;;;;;;16.70;64.70;;;;;;5106098;27;19948;-78
2022/05/06 02:33:23;;;;;;;;;;;16.70;64.70;;;;;;5120276;27;19923;-80
2022/05/06 02:35:50;;;;;;;;;;;17.40;65.50;;;;;;5115615;27;20392;-77
2022/05/06 02:38:21;;;;;;;;;;;16.70;64.70;;;;;;5096035;27;19983;-76
2022/05/06 02:40:52;;;;;;;;;;;16.70;64.80;;;;;;5095248;27;20335;-78
2022/05/06 02:43:21;;;;;;;;;;;16.70;64.80;;;;;;5113835;27;19927;-77
2022/05/06 02:45:53;;;;;;;;;;;17.10;65.10;;;;;;5101199;27;19920;-79
2022/05/06 02:48:20;;;;;;;;;;;16.70;64.60;;;;;;5114050;27;19920;-78
2022/05/06 02:50:56;;;;;;;;;;;16.70;64.60;;;;;;5115670;27;19926;-75
2022/05/06 02:53:22;;;;;;;;;;;17.80;65.80;;;;;;5096565;27;19919;-77
2022/05/06 02:55:53;;;;;;;;;;;16.70;64.60;;;;;;5115794;27;19919;-79
2022/05/06 02:58:20;;;;;;;;;;;16.70;64.50;;;;;;5093609;27;19919;-76
2022/05/06 03:00:47;;;;;;;;;;;16.70;64.50;;;;;;5106806;27;19991;-77
2022/05/06 03:03:23;;;;;;;;;;;16.70;64.40;;;;;;5117449;27;20013;-77
2022/05/06 03:05:49;;;;;;;;;;;16.70;64.50;;;;;;5122801;27;19997;-78
2022/05/06 03:08:19;;;;;;;;;;;16.70;64.40;;;;;;5119641;27;19925;-78
2022/05/06 03:10:57;;;;;;;;;;;16.70;64.40;;;;;;5109545;27;20060;-76
2022/05/06 03:13:25;;;;;;;;;;;16.60;64.20;;;;;;5108759;27;19919;-77
2022/05/06 03:15:53;;;;;;;;;;;16.70;64.30;;;;;;5113724;27;19930;-78
2022/05/06 03:18:20;;;;;;;;;;;16.60;64.20;;;;;;5115743;27;20103;-80
2022/05/06 03:20:53;;;;;;;;;;;16.60;64.20;;;;;;5116282;27;19966;-80
2022/05/06 03:23:20;;;;;;;;;;;16.60;64.20;;;;;;5116554;27;19927;-78
2022/05/06 03:26:01;;;;;;;;;;;16.60;64.20;;;;;;5109917;27;20278;-76
2022/05/06 03:28:31;;;;;;;;;;;16.60;64.20;;;;;;5108449;27;20022;-79
2022/05/06 03:30:59;;;;;;;;;;;16.60;64.20;;;;;;5109419;27;19935;-77
2022/05/06 03:33:28;;;;;;;;;;;16.60;64.20;;;;;;5100859;27;19934;-76
2022/05/06 03:35:56;;;;;;;;;;;16.70;64.30;;;;;;5097404;27;19930;-80
2022/05/06 03:38:22;;;;;;;;;;;16.60;64.20;;;;;;5108735;27;19923;-77
2022/05/06 03:40:52;;;;;;;;;;;16.60;64.10;;;;;;5114810;27;20495;-77
2022/05/06 03:43:20;;;;;;;;;;;16.60;64.20;;;;;;5102012;27;19942;-77
2022/05/06 03:45:51;;;;;;;;;;;16.60;64.10;;;;;;5115778;27;19919;-79
2022/05/06 03:48:17;;;;;;;;;;;16.80;64.30;;;;;;5113057;27;19919;-75
2022/05/06 03:53:28;;;;;;;;;;;16.60;64.10;;;;;;5132681;27;20409;-77
2022/05/06 03:55:55;;;;;;;;;;;16.60;64.10;;;;;;5112065;27;19991;-79
2022/05/06 03:58:23;;;;;;;;;;;17.10;64.70;;;;;;5115451;27;19927;-79
2022/05/06 04:00:51;;;;;;;;;;;16.60;64.20;;;;;;5113707;27;19972;-75
2022/05/06 04:03:19;;;;;;;;;;;16.60;64.20;;;;;;5100326;27;19919;-78
2022/05/06 04:05:46;;;;;;;;;;;16.60;64.20;;;;;;5128443;27;19919;-76
2022/05/06 04:08:16;;;;;;;;;;;16.60;64.10;;;;;;5095019;27;19920;-76
2022/05/06 04:11:01;;;;;;;;;;;16.60;64.10;;;;;;5108668;27;20052;-77
2022/05/06 04:13:30;;;;;;;;;;;16.60;64.10;;;;;;5088795;27;19930;-79
2022/05/06 04:16:10;;;;;;;;;;;16.60;64.10;;;;;;5116447;27;19984;-79
2022/05/06 04:18:42;;;;;;;;;;;16.60;64.10;;;;;;5128581;27;19920;-79
2022/05/06 04:23:53;;;;;;;;;;;16.60;64.10;;;;;;5112812;27;19919;-78
2022/05/06 04:26:20;;;;;;;;;;;16.60;64.10;;;;;;5103215;27;20376;-79
2022/05/06 04:28:52;;;;;;;;;;;16.60;64.10;;;;;;5128251;27;20373;-76
2022/05/06 04:31:18;;;;;;;;;;;16.60;64.10;;;;;;5107214;27;20720;-77
2022/05/06 04:33:48;;;;;;;;;;;16.60;64.10;;;;;;5107643;27;19942;-77
2022/05/06 04:36:21;;;;;;;;;;;16.60;64.10;;;;;;5104015;27;20507;-78
2022/05/06 04:38:51;;;;;;;;;;;16.60;64.10;;;;;;5115522;27;19919;-79
2022/05/06 04:41:19;;;;;;;;;;;16.60;64.10;;;;;;5091715;27;19934;-78
2022/05/06 04:43:48;;;;;;;;;;;16.60;64.00;;;;;;5109679;27;20010;-82
2022/05/06 04:46:23;;;;;;;;;;;16.60;64.10;;;;;;5110797;27;19964;-76
2022/05/06 04:48:51;;;;;;;;;;;16.60;64.10;;;;;;5120622;27;19927;-77
2022/05/06 04:51:26;;;;;;;;;;;16.60;64.00;;;;;;5091744;27;20313;-81
2022/05/06 04:53:55;;;;;;;;;;;16.50;63.90;;;;;;5101188;27;19942;-76
2022/05/06 04:56:22;;;;;;;;;;;17.30;64.80;;;;;;5116911;27;19919;-78
2022/05/06 04:58:55;;;;;;;;;;;16.60;64.10;;;;;;5118555;27;19919;-79
2022/05/06 05:01:28;;;;;;;;;;;16.60;64.00;;;;;;5104458;27;19937;-78
2022/05/06 05:03:59;;;;;;;;;;;16.60;64.10;;;;;;5135402;27;19931;-80
2022/05/06 05:06:26;;;;;;;;;;;16.60;64.00;;;;;;5114136;27;19919;-78
2022/05/06 05:08:53;;;;;;;;;;;16.60;64.10;;;;;;5114376;27;20394;-79
2022/05/06 05:11:19;;;;;;;;;;;16.60;64.10;;;;;;5090122;28;19992;-77
2022/05/06 05:13:49;;;;;;;;;;;16.60;64.10;;;;;;5113954;27;19923;-77
2022/05/06 05:16:26;;;;;;;;;;;17.00;64.60;;;;;;5108313;27;19924;-79
2022/05/06 05:18:54;;;;;;;;;;;16.60;64.10;;;;;;5110686;27;20474;-77
2022/05/06 05:21:21;;;;;;;;;;;16.40;63.90;;;;;;5103413;27;19927;-78
2022/05/06 05:23:59;;;;;;;;;;;16.50;64.00;;;;;;5116134;27;19923;-77
2022/05/06 05:26:26;;;;;;;;;;;16.60;64.10;;;;;;5094333;27;19920;-76
2022/05/06 05:28:56;;;;;;;;;;;16.60;64.00;;;;;;5112031;27;20389;-77
2022/05/06 05:31:23;;;;;;;;;;;16.50;63.90;;;;;;5109334;27;20561;-77
2022/05/06 05:33:52;;;;;;;;;;;16.50;64.10;;;;;;5111053;27;19926;-80
2022/05/06 05:36:20;;;;;;;;;;;16.50;64.10;;;;;;5097728;27;19919;-80
2022/05/06 05:38:50;;;;;;;;;;;16.50;64.20;;;;;;5119996;27;19937;-78
2022/05/06 05:41:17;;;;;;;;;;;16.50;64.20;;;;;;5107385;27;19923;-78
2022/05/06 05:49:36;;;;;;;;;;;17.70;65.50;;;;;;5123580;27;19923;-79
2022/05/06 05:52:13;;;;;;;;;;;16.50;64.20;;;;;;5095806;27;19919;-78
2022/05/06 05:54:41;;;;;;;;;;;16.60;64.40;;;;;;5111514;27;20036;-77
2022/05/06 05:57:10;;;;;;;;;;;16.60;64.40;;;;;;5121304;27;19919;-76
2022/05/06 05:59:43;;;;;;;;;;;16.60;64.40;;;;;;5119177;27;19919;-77
2022/05/06 06:02:13;;;;;;;;;;;16.60;64.40;;;;;;5092239;27;19920;-75
2022/05/06 06:04:43;;;;;;;;;;;16.60;64.40;;;;;;5123437;27;19923;-76
2022/05/06 06:07:21;;;;;;;;;;;16.60;64.40;;;;;;5102585;27;19927;-80
2022/05/06 06:09:51;;;;;;;;;;;16.60;64.30;;;;;;5117347;27;19961;-77
2022/05/06 06:12:26;;;;;;;;;;;17.10;64.90;;;;;;5099885;27;19934;-79
2022/05/06 06:14:57;;;;;;;;;;;16.60;64.40;;;;;;5117178;27;19923;-78
2022/05/06 06:17:27;;;;;;;;;;;16.60;64.40;;;;;;5135076;27;19924;-77
2022/05/06 06:19:53;;;;;;;;;;;16.60;64.40;;;;;;5114053;27;20064;-80
2022/05/06 06:22:21;;;;;;;;;;;18.00;66.10;;;;;;5095694;27;19919;-79
2022/05/06 06:24:48;;;;;;;;;;;16.60;64.60;;;;;;5096988;27;19998;-78
2022/05/06 06:27:17;;;;;;;;;;;16.60;64.90;;;;;;5107997;27;20693;-78
2022/05/06 06:29:51;;;;;;;;;;;16.60;65.00;;;;;;5092473;27;20014;-78
2022/05/06 06:32:18;;;;;;;;;;;16.60;65.00;;;;;;5112958;27;19924;-78
2022/05/06 06:34:51;;;;;;;;;;;16.60;65.00;;;;;;5099838;27;20293;-78
2022/05/06 06:37:27;;;;;;;;;;;16.60;65.10;;;;;;5111387;27;19919;-76
2022/05/06 06:39:54;;;;;;;;;;;16.60;65.00;;;;;;5111696;27;19927;-75
2022/05/06 06:42:20;;;;;;;;;;;16.60;65.00;;;;;;5089652;27;20013;-77
2022/05/06 06:44:49;;;;;;;;;;;16.60;65.10;;;;;;5099031;27;20022;-77
2022/05/06 06:47:17;;;;;;;;;;;16.60;65.20;;;;;;5122158;27;19920;-77
2022/05/06 06:49:45;;;;;;;;;;;16.60;65.20;;;;;;5117550;27;20041;-77
2022/05/06 06:52:13;;;;;;;;;;;16.60;65.30;;;;;;5114782;27;20427;-78
2022/05/06 06:54:52;;;;;;;;;;;16.60;65.50;;;;;;5121631;27;19927;-76
2022/05/06 06:57:19;;;;;;;;;;;17.60;66.60;;;;;;5133155;27;19963;-78
2022/05/06 06:59:46;;;;;;;;;;;16.60;65.40;;;;;;5127543;27;19927;-76
2022/05/06 07:02:13;;;;;;;;;;;16.60;65.70;;;;;;5127477;27;19964;-75
2022/05/06 07:04:54;;;;;;;;;;;16.60;65.60;;;;;;5112109;27;19934;-78
2022/05/06 07:13:14;;;;;;;;;;;16.70;66.10;;;;;;5112902;27;19999;-75
2022/05/06 07:15:42;;;;;;;;;;;16.70;66.10;;;;;;5129031;27;19927;-77
2022/05/06 07:18:09;;;;;;;;;;;16.70;66.10;;;;;;5099593;27;19959;-76
2022/05/06 07:20:42;;;;;;;;;;;16.70;66.20;;;;;;5110585;27;19927;-77
2022/05/06 07:23:18;;;;;;;;;;;16.70;66.20;;;;;;5118278;27;19942;-79
2022/05/06 07:25:46;;;;;;;;;;;16.70;66.10;;;;;;5118754;27;19926;-77
2022/05/06 07:28:20;;;;;;;;;;;16.70;66.20;;;;;;5119222;27;19969;-81
2022/05/06 07:30:47;;;;;;;;;;;16.70;66.20;;;;;;5106871;27;20037;-79
2022/05/06 07:33:14;;;;;;;;;;;16.70;66.20;;;;;;5093238;27;19946;-80
2022/05/06 07:35:59;;;;;;;;;;;16.70;66.30;;;;;;5114346;27;19926;-75
2022/05/06 07:38:26;;;;;;;;;;;16.70;66.20;;;;;;5121875;27;19923;-77
2022/05/06 07:40:55;;;;;;;;;;;16.70;66.20;;;;;;5115604;27;19946;-77
2022/05/06 07:43:26;;;;;;;;;;;16.70;66.20;;;;;;5093886;27;20384;-79
2022/05/06 07:45:53;;;;;;;;;;;17.50;67.20;;;;;;5107912;27;19930;-79
2022/05/06 07:48:20;;;;;;;;;;;16.80;66.60;;;;;;5087479;28;20310;-81
2022/05/06 07:50:47;;;;;;;;;;;16.70;66.40;;;;;;5091326;27;19923;-77
2022/05/06 07:53:14;;;;;;;;;;;16.70;66.40;;;;;;5106154;27;19924;-78
2022/05/06 07:55:49;;;;;;;;;;;17.10;66.80;;;;;;5111059;27;20290;-77
2022/05/06 07:58:22;;;;;;;;;;;16.70;66.50;;;;;;5111717;27;20332;-76
2022/05/06 08:00:50;;;;;;;;;;;16.70;66.70;;;;;;5114009;27;19928;-79
2022/05/06 08:06:04;;;;;;;;;;;16.70;67.20;;;;;;5116313;27;19938;-77
2022/05/06 08:08:33;;;;;;;;;;;16.70;67.50;;;;;;5118423;27;20399;-77
2022/05/06 08:11:19;;;;;;;;;;;16.80;67.70;;;;;;5111356;27;20023;-77
2022/05/06 08:13:49;;;;;;;;;;;16.80;67.70;;;;;;5108393;27;19980;-78
2022/05/06 08:16:16;;;;;;;;;;;16.90;68.00;;;;;;5111075;27;20342;-79
2022/05/06 08:18:43;;;;;;;;;;;16.80;68.40;;;;;;5098723;27;19919;-76
2022/05/06 08:21:10;;;;;;;;;;;16.80;68.30;;;;;;5092513;27;19959;-77
2022/05/06 08:23:46;;;;;;;;;;;17.30;68.60;;;;;;5085343;28;20484;-77
2022/05/06 08:26:13;;;;;;;;;;;16.80;68.60;;;;;;5104420;27;19919;-78
2022/05/06 08:28:42;;;;;;;;;;;16.80;69.40;;;;;;5105514;27;19919;-75
2022/05/06 08:31:13;;;;;;;;;;;16.90;69.40;;;;;;5107959;27;19996;-75
2022/05/06 08:33:43;;;;;;;;;;;16.90;70.60;;;;;;5110064;27;19959;-75
2022/05/06 08:36:20;;;;;;;;;;;17.00;71.20;;;;;;5090271;27;20263;-77
2022/05/06 08:38:48;;;;;;;;;;;17.00;70.40;;;;;;5108704;27;20402;-76
2022/05/06 08:41:20;;;;;;;;;;;17.00;69.70;;;;;;5113210;27;20014;-77
2022/05/06 08:43:52;;;;;;;;;;;17.00;69.50;;;;;;5093122;27;19919;-77
2022/05/06 08:52:12;;;;;;;;;;;17.00;69.40;;;;;;5116361;27;20571;-78
2022/05/06 08:54:41;;;;;;;;;;;17.00;69.50;;;;;;5096699;27;19999;-76
2022/05/06 08:57:20;;;;;;;;;;;17.00;69.70;;;;;;5112055;27;19957;-75
2022/05/06 08:59:52;;;;;;;;;;;17.00;69.50;;;;;;5111462;27;19919;-76
2022/05/06 09:02:22;;;;;;;;;;;17.00;69.40;;;;;;5125160;27;19949;-76
2022/05/06 09:05:01;;;;;;;;;;;17.00;69.70;;;;;;5126630;27;19919;-78
2022/05/06 09:07:28;;;;;;;;;;;17.10;69.90;;;;;;5092970;27;20282;-77
2022/05/06 09:10:10;;;;;;;;;;;17.00;69.90;;;;;;5106950;27;19937;-75
2022/05/06 09:12:47;;;;;;;;;;;17.10;70.30;;;;;;5116560;27;19927;-77
2022/05/06 09:18:20;;;;;;;;;;;17.10;70.30;;;;;;5066659;28;19924;-77
2022/05/06 09:20:50;;;;;;;;;;;17.10;70.20;;;;;;5104594;27;19931;-76
2022/05/06 09:23:24;;;;;;;;;;;17.10;70.40;;;;;;5105994;27;20288;-77
2022/05/06 09:26:15;;;;;;;;;;;17.10;70.40;;;;;;5094117;28;19920;-76
2022/05/06 09:28:43;;;;;;;;;;;17.10;70.80;;;;;;5124891;27;19998;-78
2022/05/06 09:31:25;;;;;;;;;;;17.10;70.90;;;;;;5116731;27;19955;-77
2022/05/06 09:33:53;;;;;;;;;;;17.20;71.20;;;;;;5134816;27;19919;-77
2022/05/06 09:36:24;;;;;;;;;;;17.80;72.00;;;;;;5099777;28;19952;-79
2022/05/06 09:39:03;;;;;;;;;;;17.20;71.40;;;;;;5115391;27;19924;-78
2022/05/06 09:41:38;;;;;;;;;;;17.20;71.30;;;;;;5110273;27;19927;-77
2022/05/06 09:44:22;;;;;;;;;;;17.20;71.90;;;;;;5088010;28;19932;-78
2022/05/06 09:47:07;;;;;;;;;;;17.20;72.00;;;;;;5089651;28;19934;-77
2022/05/06 09:49:39;;;;;;;;;;;17.20;71.80;;;;;;5114840;27;19923;-77
2022/05/06 09:52:14;;;;;;;;;;;17.20;72.20;;;;;;5106303;27;19919;-76
2022/05/06 09:54:44;;;;;;;;;;;17.20;72.30;;;;;;5114242;27;19931;-77
2022/05/06 09:57:16;;;;;;;;;;;17.20;72.40;;;;;;5101166;27;20007;-77
2022/05/06 09:59:43;;;;;;;;;;;17.30;72.60;;;;;;5104373;27;19927;-77
2022/05/06 10:02:13;;;;;;;;;;;17.30;72.50;;;;;;5102965;28;19927;-78
2022/05/06 10:04:49;;;;;;;;;;;17.30;72.70;;;;;;5105471;27;20305;-77
2022/05/06 10:07:25;;;;;;;;;;;17.30;72.70;;;;;;5111538;27;19926;-79
2022/05/06 10:09:58;;;;;;;;;;;17.30;72.80;;;;;;5098695;27;19919;-78
2022/05/06 10:12:27;;;;;;;;;;;18.00;73.80;;;;;;5097864;27;20399;-76
2022/05/06 10:15:08;;;;;;;;;;;17.30;73.20;;;;;;5114607;27;19938;-78
2022/05/06 10:17:54;;;;;;;;;;;17.30;73.20;;;;;;5116820;27;19945;-78
2022/05/06 10:20:45;;;;;;;;;;;17.30;73.40;;;;;;5091207;28;19962;-80
2022/05/06 10:23:15;;;;;;;;;;;17.30;73.40;;;;;;5113191;27;19924;-77
2022/05/06 10:26:00;;;;;;;;;;;17.30;73.40;;;;;;5103479;27;19950;-77
2022/05/06 10:34:31;;;;;;;;;;;17.40;73.90;;;;;;5113127;27;19972;-76
2022/05/06 10:37:14;;;;;;;;;;;17.40;73.50;;;;;;5115585;27;20007;-78
2022/05/06 10:39:52;;;;;;;;;;;17.40;73.90;;;;;;5113544;27;19926;-76
2022/05/06 10:42:32;;;;;;;;;;;17.40;74.10;;;;;;5104780;27;19951;-76
2022/05/06 10:44:58;;;;;;;;;;;17.40;74.30;;;;;;5111236;27;19927;-77
2022/05/06 10:47:44;;;;;;;;;;;17.40;73.80;;;;;;5118360;27;20401;-76
2022/05/06 10:50:15;;;;;;;;;;;17.40;74.00;;;;;;5101551;27;19926;-76
2022/05/06 10:53:01;;;;;;;;;;;17.40;73.90;;;;;;5105378;27;19959;-76
2022/05/06 10:55:35;;;;;;;;;;;17.40;73.90;;;;;;5121879;27;19925;-78
2022/05/06 10:58:09;;;;;;;;;;;17.50;74.10;;;;;;5124694;27;19940;-75
2022/05/06 11:00:40;;;;;;;;;;;17.40;74.00;;;;;;5138032;27;19914;-75
2022/05/06 11:03:17;;;;;;;;;;;17.40;74.20;;;;;;5125423;27;19996;-78
2022/05/06 11:05:51;;;;;;;;;;;17.40;74.40;;;;;;5122991;27;19956;-76
2022/05/06 11:08:21;;;;;;;;;;;17.50;74.20;;;;;;5110196;27;19926;-78
2022/05/06 11:10:54;;;;;;;;;;;17.50;74.40;;;;;;5118439;27;20030;-77
2022/05/06 11:13:24;;;;;;;;;;;17.50;74.80;;;;;;5085476;28;19927;-76
2022/05/06 11:15:51;;;;;;;;;;;17.50;74.80;;;;;;5116163;27;19919;-77
2022/05/06 11:18:18;;;;;;;;;;;17.50;74.50;;;;;;5125044;27;20383;-77
2022/05/06 11:21:04;;;;;;;;;;;17.50;74.40;;;;;;5119705;27;20385;-76
2022/05/06 11:23:43;;;;;;;;;;;17.50;74.70;;;;;;5113116;27;19926;-78
2022/05/06 11:26:13;;;;;;;;;;;17.50;74.80;;;;;;5109457;27;20317;-78
2022/05/06 11:29:00;;;;;;;;;;;17.50;74.80;;;;;;5097761;27;19919;-77
2022/05/06 11:31:28;;;;;;;;;;;17.50;74.80;;;;;;5115694;27;19926;-75
2022/05/06 11:33:57;;;;;;;;;;;17.50;76.60;;;;;;5115495;27;19926;-77
2022/05/06 11:36:23;;;;;;;;;;;17.70;77.00;;;;;;5113419;27;19920;-77
2022/05/06 11:38:52;;;;;;;;;;;17.70;76.70;;;;;;5102006;27;19980;-77
2022/05/06 11:41:27;;;;;;;;;;;17.70;76.80;;;;;;5108741;27;19933;-76
2022/05/06 11:47:26;;;;;;;;;;;17.70;77.00;;;;;;5108340;27;19938;-77
2022/05/06 11:49:45;;;;;;;;;;;17.70;77.00;;;;;;5121437;27;19967;-79
2022/05/06 11:52:18;;;;;;;;;;;17.80;76.90;;;;;;5111855;27;19930;-78
2022/05/06 11:54:57;;;;;;;;;;;17.80;76.40;;;;;;5110518;27;20006;-76
2022/05/06 11:57:25;;;;;;;;;;;17.80;76.00;;;;;;5112709;27;19927;-78
2022/05/06 11:59:52;;;;;;;;;;;17.80;75.70;;;;;;5116752;27;20001;-77
2022/05/06 12:02:18;;;;;;;;;;;17.90;75.90;;;;;;5113907;27;20046;-77
2022/05/06 12:04:52;;;;;;;;;;;17.90;75.80;;;;;;5114816;27;19937;-75
2022/05/06 12:07:19;;;;;;;;;;;17.90;75.40;;;;;;5116932;27;19924;-78
2022/05/06 12:09:55;;;;;;;;;;;17.90;75.20;;;;;;5112288;27;19919;-77
2022/05/06 12:12:22;;;;;;;;;;;17.90;74.90;;;;;;5101042;27;19967;-78
2022/05/06 12:14:51;;;;;;;;;;;17.90;74.80;;;;;;5117419;27;20005;-77
2022/05/06 12:17:18;;;;;;;;;;;17.90;74.70;;;;;;5104436;27;19920;-78
2022/05/06 12:19:51;;;;;;;;;;;17.80;74.60;;;;;;5121572;27;19919;-77
2022/05/06 12:22:21;;;;;;;;;;;17.80;75.10;;;;;;5116945;27;19919;-77
2022/05/06 12:25:14;;;;;;;;;;;17.80;74.90;;;;;;5114952;27;20053;-77
2022/05/06 12:27:42;;;;;;;;;;;17.80;75.10;;;;;;5111971;27;20377;-77
2022/05/06 12:30:17;;;;;;;;;;;17.80;75.00;;;;;;5111328;27;19941;-76
2022/05/06 12:33:01;;;;;;;;;;;17.80;75.10;;;;;;5111862;27;19919;-77
2022/05/06 12:35:27;;;;;;;;;;;17.80;75.10;;;;;;5114272;27;19930;-77
2022/05/06 12:37:59;;;;;;;;;;;17.80;75.10;;;;;;5113892;27;19923;-78
2022/05/06 12:40:30;;;;;;;;;;;17.80;75.00;;;;;;5105333;27;20014;-76
2022/05/06 12:43:07;;;;;;;;;;;17.80;75.20;;;;;;5117348;27;19963;-77
2022/05/06 12:45:54;;;;;;;;;;;17.80;75.00;;;;;;5117964;27;20056;-76
2022/05/06 12:51:17;;;;;;;;;;;17.80;75.40;;;;;;5099460;27;20388;-75
2022/05/06 12:53:44;;;;;;;;;;;17.70;75.50;;;;;;5112893;27;20014;-77
2022/05/06 12:56:20;;;;;;;;;;;17.80;75.90;;;;;;5125219;27;19920;-76
2022/05/06 12:58:47;;;;;;;;;;;17.90;75.40;;;;;;5130522;27;19923;-76
2022/05/06 13:01:28;;;;;;;;;;;17.90;75.00;;;;;;5109626;27;19919;-77
2022/05/06 13:03:56;;;;;;;;;;;18.00;74.30;;;;;;5095238;28;20423;-78
2022/05/06 13:06:26;;;;;;;;;;;18.00;74.20;;;;;;5118441;27;19967;-76
2022/05/06 13:08:56;;;;;;;;;;;18.10;74.00;;;;;;5116595;27;19923;-77
2022/05/06 13:11:23;;;;;;;;;;;18.10;74.20;;;;;;5114721;27;19930;-78
2022/05/06 13:13:52;;;;;;;;;;;18.10;74.90;;;;;;5116550;27;20022;-76
2022/05/06 13:16:19;;;;;;;;;;;18.00;74.00;;;;;;5113791;27;19942;-76
2022/05/06 13:18:53;;;;;;;;;;;18.00;74.10;;;;;;5112535;27;19919;-76
2022/05/06 13:21:19;;;;;;;;;;;18.00;74.40;;;;;;5121535;27;19980;-76
2022/05/06 13:23:46;;;;;;;;;;;18.40;74.80;;;;;;5108228;28;19926;-77
2022/05/06 13:26:17;;;;;;;;;;;17.90;74.20;;;;;;5107792;27;20362;-75
2022/05/06 13:28:44;;;;;;;;;;;17.90;74.50;;;;;;5110498;27;20067;-76
2022/05/06 13:31:10;;;;;;;;;;;17.90;74.60;;;;;;5113322;27;20006;-75
2022/05/06 13:33:38;;;;;;;;;;;17.90;74.50;;;;;;5113670;27;19935;-76
2022/05/06 13:36:08;;;;;;;;;;;17.90;74.60;;;;;;5113063;27;19924;-76
2022/05/06 13:38:40;;;;;;;;;;;17.90;74.80;;;;;;5113030;27;19923;-75
2022/05/06 13:41:19;;;;;;;;;;;18.70;75.70;;;;;;5115003;27;19927;-76
2022/05/06 13:44:05;;;;;;;;;;;17.90;75.10;;;;;;5106493;27;20014;-76
2022/05/06 13:46:32;;;;;;;;;;;17.90;75.20;;;;;;5126102;27;20365;-76
2022/05/06 13:49:17;;;;;;;;;;;17.90;74.90;;;;;;5115586;27;20053;-74
2022/05/06 13:51:45;;;;;;;;;;;17.90;75.20;;;;;;5112510;27;19923;-75
2022/05/06 13:54:15;;;;;;;;;;;17.90;75.00;;;;;;5114381;27;19934;-75
2022/05/06 13:59:26;;;;;;;;;;;18.20;75.40;;;;;;5088133;27;19919;-75
2022/05/06 14:01:54;;;;;;;;;;;17.90;75.00;;;;;;5117462;27;19919;-76
2022/05/06 14:04:21;;;;;;;;;;;17.90;75.00;;;;;;5124033;27;19924;-74
2022/05/06 14:07:08;;;;;;;;;;;17.90;75.00;;;;;;5113445;27;20020;-75
2022/05/06 14:09:46;;;;;;;;;;;17.90;74.90;;;;;;5107372;27;19931;-76
2022/05/06 14:12:13;;;;;;;;;;;17.90;75.20;;;;;;5112308;27;19919;-75
2022/05/06 14:14:46;;;;;;;;;;;17.90;75.30;;;;;;5109624;27;20026;-76
2022/05/06 14:17:21;;;;;;;;;;;17.90;75.00;;;;;;5111300;27;19927;-75
2022/05/06 14:19:53;;;;;;;;;;;17.90;75.10;;;;;;5123316;27;20343;-76
2022/05/06 14:22:22;;;;;;;;;;;17.90;75.10;;;;;;5110435;27;20386;-76
2022/05/06 14:25:08;;;;;;;;;;;17.90;75.20;;;;;;5114573;27;20286;-74
2022/05/06 14:27:35;;;;;;;;;;;17.90;75.20;;;;;;5113500;27;19966;-75
2022/05/06 14:30:01;;;;;;;;;;;17.90;75.20;;;;;;5111287;27;19927;-75
2022/05/06 14:32:28;;;;;;;;;;;17.90;74.90;;;;;;5092654;27;19935;-75
2022/05/06 14:35:15;;;;;;;;;;;17.90;75.30;;;;;;5117358;27;20350;-76
2022/05/06 14:37:51;;;;;;;;;;;17.90;75.00;;;;;;5114422;27;20397;-77
2022/05/06 14:40:19;;;;;;;;;;;17.90;75.00;;;;;;5114188;27;19919;-75
2022/05/06 14:42:58;;;;;;;;;;;17.90;75.00;;;;;;5117560;27;19923;-76
2022/05/06 14:45:26;;;;;;;;;;;17.90;74.90;;;;;;5107524;27;20315;-76
2022/05/06 14:47:53;;;;;;;;;;;17.20;74.10;;;;;;5117423;27;19961;-75
2022/05/06 14:50:20;;;;;;;;;;;17.90;75.30;;;;;;5114074;27;19928;-74
2022/05/06 14:53:07;;;;;;;;;;;17.90;75.00;;;;;;5110686;27;19926;-77
2022/05/06 14:55:34;;;;;;;;;;;17.90;75.00;;;;;;5121270;27;19926;-75
2022/05/06 14:58:07;;;;;;;;;;;17.90;75.10;;;;;;5122292;27;19926;-75
2022/05/06 15:00:34;;;;;;;;;;;17.90;75.00;;;;;;5122473;27;19929;-74
2022/05/06 15:03:08;;;;;;;;;;;17.90;74.90;;;;;;5119869;27;19947;-74
2022/05/06 15:05:53;;;;;;;;;;;17.90;75.00;;;;;;5113273;27;19930;-74
2022/05/06 15:08:21;;;;;;;;;;;18.40;75.60;;;;;;5108960;27;20023;-75
2022/05/06 15:10:48;;;;;;;;;;;17.90;75.20;;;;;;5109548;27;19930;-75
2022/05/06 15:13:16;;;;;;;;;;;17.90;74.90;;;;;;5112629;27;20094;-75
2022/05/06 15:15:45;;;;;;;;;;;17.90;74.80;;;;;;5110090;27;19923;-75
2022/05/06 15:21:05;;;;;;;;;;;17.90;74.70;;;;;;5110953;27;19919;-75
2022/05/06 15:23:36;;;;;;;;;;;17.90;74.80;;;;;;5110919;27;20035;-76
2022/05/06 15:26:02;;;;;;;;;;;17.90;74.80;;;;;;5113112;27;19920;-76
2022/05/06 15:28:29;;;;;;;;;;;17.90;74.60;;;;;;5113109;27;19923;-75
2022/05/06 15:31:00;;;;;;;;;;;17.90;74.40;;;;;;5110707;27;19968;-74
2022/05/06 15:33:28;;;;;;;;;;;17.80;74.30;;;;;;5111470;27;19926;-77